sensor_id;sensor_type;location;lat;lon;timestamp;P1;durP1;ratioP1;P2;durP2;ratioP2
64426;SDS011;50772;51.482;-0.580;2023-09-08T00:01:58;6.10;;;5.70;;
64426;SDS011;50772;51.482;-0.580;2023-09-08T00:04:23;6.53;;;6.03;;
64426;SDS011;50772;51.482;-0.580;2023-09-08T00:06:49;6.50;;;6.20;;
64426;SDS011;50772;51.482;-0.580;2023-09-08T00:09:14;6.50;;;5.93;;
64426;SDS011;50772;51.482;-0.580;2023-09-08T00:11:39;6.78;;;5.82;;
64426;SDS011;50772;51.482;-0.580;2023-09-08T00:14:05;7.25;;;6.20;;
64426;SDS011;50772;51.482;-0.580;2023-09-08T00:16:30;6.28;;;5.90;;
64426;SDS011;50772;51.482;-0.580;2023-09-08T00:18:55;6.77;;;6.27;;
64426;SDS011;50772;51.482;-0.580;2023-09-08T00:21:22;6.95;;;6.47;;
64426;SDS011;50772;51.482;-0.580;2023-09-08T00:23:47;6.40;;;6.10;;
64426;SDS011;50772;51.482;-0.580;2023-09-08T00:26:12;6.13;;;5.83;;
64426;SDS011;50772;51.482;-0.580;2023-09-08T00:28:37;6.90;;;6.30;;
64426;SDS011;50772;51.482;-0.580;2023-09-08T00:31:05;6.55;;;6.15;;
64426;SDS011;50772;51.482;-0.580;2023-09-08T00:33:30;6.45;;;6.05;;
64426;SDS011;50772;51.482;-0.580;2023-09-08T00:35:55;7.10;;;6.53;;
64426;SDS011;50772;51.482;-0.580;2023-09-08T00:38:22;6.55;;;6.22;;
64426;SDS011;50772;51.482;-0.580;2023-09-08T00:40:47;6.60;;;6.00;;
64426;SDS011;50772;51.482;-0.580;2023-09-08T00:43:13;7.10;;;6.63;;
64426;SDS011;50772;51.482;-0.580;2023-09-08T00:45:38;6.87;;;6.50;;
64426;SDS011;50772;51.482;-0.580;2023-09-08T00:48:05;6.88;;;6.50;;
64426;SDS011;50772;51.482;-0.580;2023-09-08T00:50:30;6.30;;;6.00;;
64426;SDS011;50772;51.482;-0.580;2023-09-08T00:52:56;6.57;;;6.23;;
64426;SDS011;50772;51.482;-0.580;2023-09-08T00:55:21;6.40;;;6.10;;
64426;SDS011;50772;51.482;-0.580;2023-09-08T00:57:46;8.50;;;6.15;;
64426;SDS011;50772;51.482;-0.580;2023-09-08T01:00:12;7.68;;;6.18;;
64426;SDS011;50772;51.482;-0.580;2023-09-08T01:02:39;6.75;;;6.18;;
64426;SDS011;50772;51.482;-0.580;2023-09-08T01:05:04;6.27;;;5.87;;
64426;SDS011;50772;51.482;-0.580;2023-09-08T01:07:30;9.48;;;6.53;;
64426;SDS011;50772;51.482;-0.580;2023-09-08T01:09:56;6.18;;;5.88;;
64426;SDS011;50772;51.482;-0.580;2023-09-08T01:12:21;6.63;;;6.22;;
64426;SDS011;50772;51.482;-0.580;2023-09-08T01:14:46;6.57;;;6.07;;
64426;SDS011;50772;51.482;-0.580;2023-09-08T01:17:12;6.73;;;6.27;;
64426;SDS011;50772;51.482;-0.580;2023-09-08T01:19:37;6.82;;;6.32;;
64426;SDS011;50772;51.482;-0.580;2023-09-08T01:27:28;6.65;;;6.18;;
64426;SDS011;50772;51.482;-0.580;2023-09-08T01:29:54;7.00;;;6.45;;
64426;SDS011;50772;51.482;-0.580;2023-09-08T01:32:19;7.07;;;6.57;;
64426;SDS011;50772;51.482;-0.580;2023-09-08T01:34:45;6.95;;;6.45;;
64426;SDS011;50772;51.482;-0.580;2023-09-08T01:37:10;6.50;;;6.10;;
64426;SDS011;50772;51.482;-0.580;2023-09-08T01:39:35;6.80;;;6.40;;
64426;SDS011;50772;51.482;-0.580;2023-09-08T01:42:01;7.53;;;6.50;;
64426;SDS011;50772;51.482;-0.580;2023-09-08T01:44:26;6.88;;;6.38;;
64426;SDS011;50772;51.482;-0.580;2023-09-08T01:46:51;6.57;;;6.17;;
64426;SDS011;50772;51.482;-0.580;2023-09-08T01:49:21;7.07;;;6.63;;
64426;SDS011;50772;51.482;-0.580;2023-09-08T01:51:46;6.70;;;6.20;;
64426;SDS011;50772;51.482;-0.580;2023-09-08T01:54:12;6.77;;;6.37;;
64426;SDS011;50772;51.482;-0.580;2023-09-08T01:56:37;7.90;;;6.35;;
64426;SDS011;50772;51.482;-0.580;2023-09-08T01:59:05;6.70;;;6.30;;
64426;SDS011;50772;51.482;-0.580;2023-09-08T02:01:30;6.55;;;6.05;;
64426;SDS011;50772;51.482;-0.580;2023-09-08T02:03:56;6.60;;;6.30;;
64426;SDS011;50772;51.482;-0.580;2023-09-08T02:06:21;6.67;;;6.27;;
64426;SDS011;50772;51.482;-0.580;2023-09-08T02:08:46;6.77;;;6.27;;
64426;SDS011;50772;51.482;-0.580;2023-09-08T02:11:14;6.32;;;5.93;;
64426;SDS011;50772;51.482;-0.580;2023-09-08T02:13:41;6.70;;;6.17;;
64426;SDS011;50772;51.482;-0.580;2023-09-08T02:16:07;6.55;;;6.05;;
64426;SDS011;50772;51.482;-0.580;2023-09-08T02:18:32;6.97;;;6.40;;
64426;SDS011;50772;51.482;-0.580;2023-09-08T02:20:57;7.40;;;7.00;;
64426;SDS011;50772;51.482;-0.580;2023-09-08T02:23:22;7.10;;;6.40;;
64426;SDS011;50772;51.482;-0.580;2023-09-08T02:25:47;6.60;;;6.20;;
64426;SDS011;50772;51.482;-0.580;2023-09-08T02:28:13;6.67;;;6.20;;
64426;SDS011;50772;51.482;-0.580;2023-09-08T02:30:41;6.70;;;6.07;;
64426;SDS011;50772;51.482;-0.580;2023-09-08T02:33:06;6.67;;;6.27;;
64426;SDS011;50772;51.482;-0.580;2023-09-08T02:35:35;6.22;;;5.63;;
64426;SDS011;50772;51.482;-0.580;2023-09-08T02:38:00;7.05;;;6.55;;
64426;SDS011;50772;51.482;-0.580;2023-09-08T02:40:25;6.73;;;6.30;;
64426;SDS011;50772;51.482;-0.580;2023-09-08T02:42:50;6.88;;;6.47;;
64426;SDS011;50772;51.482;-0.580;2023-09-08T02:45:16;7.33;;;6.93;;
64426;SDS011;50772;51.482;-0.580;2023-09-08T02:47:41;7.45;;;6.75;;
64426;SDS011;50772;51.482;-0.580;2023-09-08T02:50:06;6.82;;;6.43;;
64426;SDS011;50772;51.482;-0.580;2023-09-08T02:52:32;7.57;;;7.05;;
64426;SDS011;50772;51.482;-0.580;2023-09-08T02:54:57;7.78;;;7.18;;
64426;SDS011;50772;51.482;-0.580;2023-09-08T02:57:22;7.18;;;6.57;;
64426;SDS011;50772;51.482;-0.580;2023-09-08T02:59:51;6.50;;;6.20;;
64426;SDS011;50772;51.482;-0.580;2023-09-08T03:02:16;7.82;;;7.00;;
64426;SDS011;50772;51.482;-0.580;2023-09-08T03:04:41;6.70;;;6.30;;
64426;SDS011;50772;51.482;-0.580;2023-09-08T03:07:06;6.70;;;6.20;;
64426;SDS011;50772;51.482;-0.580;2023-09-08T03:09:33;9.33;;;6.50;;
64426;SDS011;50772;51.482;-0.580;2023-09-08T03:11:58;6.75;;;6.45;;
64426;SDS011;50772;51.482;-0.580;2023-09-08T03:14:24;5.90;;;5.60;;
64426;SDS011;50772;51.482;-0.580;2023-09-08T03:16:49;6.33;;;6.03;;
64426;SDS011;50772;51.482;-0.580;2023-09-08T03:19:14;7.40;;;6.77;;
64426;SDS011;50772;51.482;-0.580;2023-09-08T03:21:39;7.30;;;6.80;;
64426;SDS011;50772;51.482;-0.580;2023-09-08T03:24:05;6.83;;;6.30;;
64426;SDS011;50772;51.482;-0.580;2023-09-08T03:26:30;6.95;;;6.55;;
64426;SDS011;50772;51.482;-0.580;2023-09-08T03:28:55;6.97;;;6.37;;
64426;SDS011;50772;51.482;-0.580;2023-09-08T03:31:21;6.55;;;6.20;;
64426;SDS011;50772;51.482;-0.580;2023-09-08T03:33:46;7.05;;;6.45;;
64426;SDS011;50772;51.482;-0.580;2023-09-08T03:36:11;6.32;;;6.03;;
64426;SDS011;50772;51.482;-0.580;2023-09-08T03:38:36;6.90;;;6.50;;
64426;SDS011;50772;51.482;-0.580;2023-09-08T03:41:06;6.55;;;6.13;;
64426;SDS011;50772;51.482;-0.580;2023-09-08T03:43:31;7.07;;;6.47;;
64426;SDS011;50772;51.482;-0.580;2023-09-08T03:45:56;6.13;;;5.83;;
64426;SDS011;50772;51.482;-0.580;2023-09-08T03:48:21;6.63;;;6.20;;
64426;SDS011;50772;51.482;-0.580;2023-09-08T03:50:46;6.33;;;5.93;;
64426;SDS011;50772;51.482;-0.580;2023-09-08T03:53:12;6.47;;;6.07;;
64426;SDS011;50772;51.482;-0.580;2023-09-08T03:55:37;6.45;;;5.93;;
64426;SDS011;50772;51.482;-0.580;2023-09-08T03:58:03;6.17;;;5.77;;
64426;SDS011;50772;51.482;-0.580;2023-09-08T04:00:28;6.47;;;6.03;;
64426;SDS011;50772;51.482;-0.580;2023-09-08T04:02:53;6.05;;;5.70;;
64426;SDS011;50772;51.482;-0.580;2023-09-08T04:05:18;6.50;;;6.20;;
64426;SDS011;50772;51.482;-0.580;2023-09-08T04:07:44;6.70;;;6.40;;
64426;SDS011;50772;51.482;-0.580;2023-09-08T04:10:10;8.15;;;6.50;;
64426;SDS011;50772;51.482;-0.580;2023-09-08T04:12:35;6.88;;;6.38;;
64426;SDS011;50772;51.482;-0.580;2023-09-08T04:15:00;7.17;;;6.77;;
64426;SDS011;50772;51.482;-0.580;2023-09-08T04:17:25;6.70;;;6.28;;
64426;SDS011;50772;51.482;-0.580;2023-09-08T04:19:51;7.57;;;6.70;;
64426;SDS011;50772;51.482;-0.580;2023-09-08T04:22:16;6.83;;;6.23;;
64426;SDS011;50772;51.482;-0.580;2023-09-08T04:24:41;5.90;;;5.50;;
64426;SDS011;50772;51.482;-0.580;2023-09-08T04:27:09;7.10;;;6.45;;
64426;SDS011;50772;51.482;-0.580;2023-09-08T04:29:35;8.13;;;6.50;;
64426;SDS011;50772;51.482;-0.580;2023-09-08T04:32:00;7.72;;;7.05;;
64426;SDS011;50772;51.482;-0.580;2023-09-08T04:34:25;7.27;;;6.87;;
64426;SDS011;50772;51.482;-0.580;2023-09-08T04:36:51;10.18;;;7.15;;
64426;SDS011;50772;51.482;-0.580;2023-09-08T04:39:16;7.40;;;6.70;;
64426;SDS011;50772;51.482;-0.580;2023-09-08T04:41:41;6.90;;;6.50;;
64426;SDS011;50772;51.482;-0.580;2023-09-08T04:44:06;7.03;;;6.63;;
64426;SDS011;50772;51.482;-0.580;2023-09-08T04:46:32;6.83;;;6.33;;
64426;SDS011;50772;51.482;-0.580;2023-09-08T04:48:57;8.57;;;6.63;;
64426;SDS011;50772;51.482;-0.580;2023-09-08T04:51:22;7.75;;;7.15;;
64426;SDS011;50772;51.482;-0.580;2023-09-08T04:53:47;7.27;;;6.87;;
64426;SDS011;50772;51.482;-0.580;2023-09-08T04:56:13;7.17;;;6.77;;
64426;SDS011;50772;51.482;-0.580;2023-09-08T04:58:38;7.63;;;7.22;;
64426;SDS011;50772;51.482;-0.580;2023-09-08T05:01:03;7.25;;;6.63;;
64426;SDS011;50772;51.482;-0.580;2023-09-08T05:03:29;7.40;;;7.00;;
64426;SDS011;50772;51.482;-0.580;2023-09-08T05:05:55;7.25;;;6.85;;
64426;SDS011;50772;51.482;-0.580;2023-09-08T05:08:20;7.40;;;6.67;;
64426;SDS011;50772;51.482;-0.580;2023-09-08T05:10:46;8.43;;;7.70;;
64426;SDS011;50772;51.482;-0.580;2023-09-08T05:13:11;8.77;;;7.97;;
64426;SDS011;50772;51.482;-0.580;2023-09-08T05:15:36;8.55;;;8.02;;
64426;SDS011;50772;51.482;-0.580;2023-09-08T05:18:02;8.30;;;7.80;;
64426;SDS011;50772;51.482;-0.580;2023-09-08T05:20:28;8.52;;;7.97;;
64426;SDS011;50772;51.482;-0.580;2023-09-08T05:22:53;9.27;;;8.10;;
64426;SDS011;50772;51.482;-0.580;2023-09-08T05:25:25;8.73;;;8.23;;
64426;SDS011;50772;51.482;-0.580;2023-09-08T05:27:51;8.93;;;8.23;;
64426;SDS011;50772;51.482;-0.580;2023-09-08T05:30:16;9.47;;;8.70;;
64426;SDS011;50772;51.482;-0.580;2023-09-08T05:32:41;8.97;;;8.47;;
64426;SDS011;50772;51.482;-0.580;2023-09-08T05:35:06;8.97;;;8.47;;
64426;SDS011;50772;51.482;-0.580;2023-09-08T05:37:32;9.57;;;8.90;;
64426;SDS011;50772;51.482;-0.580;2023-09-08T05:40:00;9.57;;;8.97;;
64426;SDS011;50772;51.482;-0.580;2023-09-08T05:42:27;10.88;;;9.82;;
64426;SDS011;50772;51.482;-0.580;2023-09-08T05:44:52;11.17;;;10.13;;
64426;SDS011;50772;51.482;-0.580;2023-09-08T05:47:19;10.63;;;9.90;;
64426;SDS011;50772;51.482;-0.580;2023-09-08T05:49:45;11.10;;;10.30;;
64426;SDS011;50772;51.482;-0.580;2023-09-08T05:52:10;10.63;;;9.75;;
64426;SDS011;50772;51.482;-0.580;2023-09-08T05:54:35;13.97;;;10.67;;
64426;SDS011;50772;51.482;-0.580;2023-09-08T05:57:01;11.82;;;10.48;;
64426;SDS011;50772;51.482;-0.580;2023-09-08T05:59:26;11.20;;;10.40;;
64426;SDS011;50772;51.482;-0.580;2023-09-08T06:01:51;10.65;;;9.63;;
64426;SDS011;50772;51.482;-0.580;2023-09-08T06:04:19;10.40;;;9.45;;
64426;SDS011;50772;51.482;-0.580;2023-09-08T06:06:46;11.57;;;10.32;;
64426;SDS011;50772;51.482;-0.580;2023-09-08T06:09:11;10.10;;;9.30;;
64426;SDS011;50772;51.482;-0.580;2023-09-08T06:11:39;10.65;;;9.68;;
64426;SDS011;50772;51.482;-0.580;2023-09-08T06:14:04;10.13;;;9.25;;
64426;SDS011;50772;51.482;-0.580;2023-09-08T06:16:32;10.17;;;9.37;;
64426;SDS011;50772;51.482;-0.580;2023-09-08T06:18:58;10.32;;;9.43;;
64426;SDS011;50772;51.482;-0.580;2023-09-08T06:21:24;12.07;;;9.60;;
64426;SDS011;50772;51.482;-0.580;2023-09-08T06:23:49;10.70;;;9.40;;
64426;SDS011;50772;51.482;-0.580;2023-09-08T06:26:17;9.20;;;8.50;;
64426;SDS011;50772;51.482;-0.580;2023-09-08T06:28:42;9.40;;;8.57;;
64426;SDS011;50772;51.482;-0.580;2023-09-08T06:31:09;8.82;;;8.10;;
64426;SDS011;50772;51.482;-0.580;2023-09-08T06:33:34;9.45;;;8.52;;
64426;SDS011;50772;51.482;-0.580;2023-09-08T06:35:59;8.90;;;8.20;;
64426;SDS011;50772;51.482;-0.580;2023-09-08T06:38:25;8.37;;;7.77;;
64426;SDS011;50772;51.482;-0.580;2023-09-08T06:40:50;9.30;;;8.57;;
64426;SDS011;50772;51.482;-0.580;2023-09-08T06:43:18;9.23;;;8.38;;
64426;SDS011;50772;51.482;-0.580;2023-09-08T06:45:52;8.70;;;7.90;;
64426;SDS011;50772;51.482;-0.580;2023-09-08T06:48:17;8.95;;;8.18;;
64426;SDS011;50772;51.482;-0.580;2023-09-08T06:50:42;8.57;;;7.88;;
64426;SDS011;50772;51.482;-0.580;2023-09-08T06:53:07;8.20;;;7.70;;
64426;SDS011;50772;51.482;-0.580;2023-09-08T06:55:33;8.13;;;7.53;;
64426;SDS011;50772;51.482;-0.580;2023-09-08T06:57:58;7.93;;;7.43;;
64426;SDS011;50772;51.482;-0.580;2023-09-08T07:00:23;7.93;;;7.37;;
64426;SDS011;50772;51.482;-0.580;2023-09-08T07:02:49;7.07;;;6.57;;
64426;SDS011;50772;51.482;-0.580;2023-09-08T07:05:20;7.57;;;7.07;;
64426;SDS011;50772;51.482;-0.580;2023-09-08T07:07:45;8.73;;;7.97;;
64426;SDS011;50772;51.482;-0.580;2023-09-08T07:10:11;8.02;;;7.30;;
64426;SDS011;50772;51.482;-0.580;2023-09-08T07:12:36;7.85;;;7.15;;
64426;SDS011;50772;51.482;-0.580;2023-09-08T07:15:01;8.77;;;7.97;;
64426;SDS011;50772;51.482;-0.580;2023-09-08T07:17:27;8.30;;;7.60;;
64426;SDS011;50772;51.482;-0.580;2023-09-08T07:19:52;7.35;;;6.85;;
64426;SDS011;50772;51.482;-0.580;2023-09-08T07:22:18;7.35;;;6.75;;
64426;SDS011;50772;51.482;-0.580;2023-09-08T07:24:43;7.82;;;7.20;;
64426;SDS011;50772;51.482;-0.580;2023-09-08T07:27:09;7.53;;;7.00;;
64426;SDS011;50772;51.482;-0.580;2023-09-08T07:29:34;7.53;;;6.80;;
64426;SDS011;50772;51.482;-0.580;2023-09-08T07:31:59;7.00;;;6.47;;
64426;SDS011;50772;51.482;-0.580;2023-09-08T07:34:25;7.50;;;6.50;;
64426;SDS011;50772;51.482;-0.580;2023-09-08T07:36:50;6.70;;;6.13;;
64426;SDS011;50772;51.482;-0.580;2023-09-08T07:39:15;7.32;;;6.50;;
64426;SDS011;50772;51.482;-0.580;2023-09-08T07:41:40;6.75;;;6.18;;
64426;SDS011;50772;51.482;-0.580;2023-09-08T07:44:14;6.38;;;5.88;;
64426;SDS011;50772;51.482;-0.580;2023-09-08T07:46:41;6.38;;;5.65;;
64426;SDS011;50772;51.482;-0.580;2023-09-08T07:49:07;5.43;;;5.03;;
64426;SDS011;50772;51.482;-0.580;2023-09-08T07:51:33;5.60;;;5.20;;
64426;SDS011;50772;51.482;-0.580;2023-09-08T07:53:58;5.70;;;4.90;;
64426;SDS011;50772;51.482;-0.580;2023-09-08T07:56:23;6.63;;;5.23;;
64426;SDS011;50772;51.482;-0.580;2023-09-08T07:58:48;5.73;;;5.40;;
64426;SDS011;50772;51.482;-0.580;2023-09-08T08:01:14;5.27;;;4.87;;
64426;SDS011;50772;51.482;-0.580;2023-09-08T08:03:40;5.63;;;4.75;;
64426;SDS011;50772;51.482;-0.580;2023-09-08T08:06:05;4.75;;;4.30;;
64426;SDS011;50772;51.482;-0.580;2023-09-08T08:08:31;4.78;;;4.38;;
64426;SDS011;50772;51.482;-0.580;2023-09-08T08:10:56;4.63;;;4.32;;
64426;SDS011;50772;51.482;-0.580;2023-09-08T08:13:21;4.93;;;4.33;;
64426;SDS011;50772;51.482;-0.580;2023-09-08T08:15:47;5.40;;;4.00;;
64426;SDS011;50772;51.482;-0.580;2023-09-08T08:18:12;3.78;;;3.58;;
64426;SDS011;50772;51.482;-0.580;2023-09-08T08:20:43;4.35;;;4.00;;
64426;SDS011;50772;51.482;-0.580;2023-09-08T08:23:08;4.07;;;3.80;;
64426;SDS011;50772;51.482;-0.580;2023-09-08T08:25:34;4.05;;;3.63;;
64426;SDS011;50772;51.482;-0.580;2023-09-08T08:27:59;3.85;;;3.55;;
64426;SDS011;50772;51.482;-0.580;2023-09-08T08:30:28;4.13;;;3.80;;
64426;SDS011;50772;51.482;-0.580;2023-09-08T08:32:53;3.83;;;3.63;;
64426;SDS011;50772;51.482;-0.580;2023-09-08T08:35:19;3.60;;;3.40;;
64426;SDS011;50772;51.482;-0.580;2023-09-08T08:37:44;3.50;;;3.28;;
64426;SDS011;50772;51.482;-0.580;2023-09-08T08:40:13;4.70;;;3.30;;
64426;SDS011;50772;51.482;-0.580;2023-09-08T08:42:38;3.65;;;3.45;;
64426;SDS011;50772;51.482;-0.580;2023-09-08T08:45:04;3.78;;;3.45;;
64426;SDS011;50772;51.482;-0.580;2023-09-08T08:47:32;3.90;;;3.60;;
64426;SDS011;50772;51.482;-0.580;2023-09-08T08:49:57;6.83;;;3.57;;
64426;SDS011;50772;51.482;-0.580;2023-09-08T08:52:26;3.67;;;3.47;;
64426;SDS011;50772;51.482;-0.580;2023-09-08T08:54:51;3.42;;;3.13;;
64426;SDS011;50772;51.482;-0.580;2023-09-08T08:57:16;3.30;;;3.10;;
64426;SDS011;50772;51.482;-0.580;2023-09-08T08:59:44;3.47;;;3.28;;
64426;SDS011;50772;51.482;-0.580;2023-09-08T09:02:30;8.00;;;3.35;;
64426;SDS011;50772;51.482;-0.580;2023-09-08T09:04:55;3.53;;;3.10;;
64426;SDS011;50772;51.482;-0.580;2023-09-08T09:07:21;4.05;;;3.55;;
64426;SDS011;50772;51.482;-0.580;2023-09-08T09:09:46;8.85;;;4.22;;
64426;SDS011;50772;51.482;-0.580;2023-09-08T09:12:11;5.13;;;3.10;;
64426;SDS011;50772;51.482;-0.580;2023-09-08T09:14:36;7.63;;;3.40;;
64426;SDS011;50772;51.482;-0.580;2023-09-08T09:17:02;3.75;;;3.45;;
64426;SDS011;50772;51.482;-0.580;2023-09-08T09:19:29;3.17;;;2.80;;
64426;SDS011;50772;51.482;-0.580;2023-09-08T09:21:57;3.53;;;3.33;;
64426;SDS011;50772;51.482;-0.580;2023-09-08T09:26:58;3.70;;;3.40;;
64426;SDS011;50772;51.482;-0.580;2023-09-08T09:29:23;4.28;;;2.95;;
64426;SDS011;50772;51.482;-0.580;2023-09-08T09:34:51;3.45;;;3.22;;
64426;SDS011;50772;51.482;-0.580;2023-09-08T09:37:18;3.80;;;2.90;;
64426;SDS011;50772;51.482;-0.580;2023-09-08T09:39:45;4.18;;;2.95;;
64426;SDS011;50772;51.482;-0.580;2023-09-08T09:42:13;3.13;;;2.90;;
64426;SDS011;50772;51.482;-0.580;2023-09-08T09:44:38;3.07;;;2.87;;
64426;SDS011;50772;51.482;-0.580;2023-09-08T09:47:03;3.33;;;3.13;;
64426;SDS011;50772;51.482;-0.580;2023-09-08T09:49:29;5.60;;;2.92;;
64426;SDS011;50772;51.482;-0.580;2023-09-08T09:51:57;3.20;;;3.00;;
64426;SDS011;50772;51.482;-0.580;2023-09-08T09:54:23;3.05;;;2.85;;
64426;SDS011;50772;51.482;-0.580;2023-09-08T09:56:48;4.77;;;3.20;;
64426;SDS011;50772;51.482;-0.580;2023-09-08T09:59:13;5.23;;;3.77;;
64426;SDS011;50772;51.482;-0.580;2023-09-08T10:01:39;5.97;;;2.97;;
64426;SDS011;50772;51.482;-0.580;2023-09-08T10:04:05;4.13;;;2.97;;
64426;SDS011;50772;51.482;-0.580;2023-09-08T10:06:34;3.75;;;2.88;;
64426;SDS011;50772;51.482;-0.580;2023-09-08T10:08:59;3.78;;;2.88;;
64426;SDS011;50772;51.482;-0.580;2023-09-08T10:11:27;3.65;;;2.80;;
64426;SDS011;50772;51.482;-0.580;2023-09-08T10:13:53;4.93;;;3.10;;
64426;SDS011;50772;51.482;-0.580;2023-09-08T10:16:21;3.57;;;3.20;;
64426;SDS011;50772;51.482;-0.580;2023-09-08T10:18:47;3.20;;;3.00;;
64426;SDS011;50772;51.482;-0.580;2023-09-08T10:21:12;3.00;;;2.90;;
64426;SDS011;50772;51.482;-0.580;2023-09-08T10:23:41;5.47;;;2.88;;
64426;SDS011;50772;51.482;-0.580;2023-09-08T10:26:13;5.97;;;3.00;;
64426;SDS011;50772;51.482;-0.580;2023-09-08T10:28:39;3.90;;;3.58;;
64426;SDS011;50772;51.482;-0.580;2023-09-08T10:31:05;3.37;;;3.07;;
64426;SDS011;50772;51.482;-0.580;2023-09-08T10:33:34;3.92;;;3.25;;
64426;SDS011;50772;51.482;-0.580;2023-09-08T10:36:00;3.97;;;2.97;;
64426;SDS011;50772;51.482;-0.580;2023-09-08T10:38:29;3.05;;;2.85;;
64426;SDS011;50772;51.482;-0.580;2023-09-08T10:46:22;4.35;;;2.70;;
64426;SDS011;50772;51.482;-0.580;2023-09-08T10:48:48;4.97;;;2.55;;
64426;SDS011;50772;51.482;-0.580;2023-09-08T10:51:13;2.60;;;2.50;;
64426;SDS011;50772;51.482;-0.580;2023-09-08T10:53:39;2.85;;;2.65;;
64426;SDS011;50772;51.482;-0.580;2023-09-08T10:56:04;2.95;;;2.75;;
64426;SDS011;50772;51.482;-0.580;2023-09-08T10:58:31;6.60;;;3.07;;
64426;SDS011;50772;51.482;-0.580;2023-09-08T11:00:58;16.23;;;3.65;;
64426;SDS011;50772;51.482;-0.580;2023-09-08T11:03:26;3.70;;;3.05;;
64426;SDS011;50772;51.482;-0.580;2023-09-08T11:05:55;3.25;;;2.95;;
64426;SDS011;50772;51.482;-0.580;2023-09-08T11:08:21;5.28;;;3.20;;
64426;SDS011;50772;51.482;-0.580;2023-09-08T11:10:49;3.08;;;2.90;;
64426;SDS011;50772;51.482;-0.580;2023-09-08T11:13:15;7.50;;;3.20;;
64426;SDS011;50772;51.482;-0.580;2023-09-08T11:15:41;4.70;;;2.97;;
64426;SDS011;50772;51.482;-0.580;2023-09-08T11:18:06;3.25;;;2.65;;
64426;SDS011;50772;51.482;-0.580;2023-09-08T11:20:33;3.20;;;3.00;;
64426;SDS011;50772;51.482;-0.580;2023-09-08T11:22:59;3.53;;;2.58;;
64426;SDS011;50772;51.482;-0.580;2023-09-08T11:25:24;3.72;;;2.88;;
64426;SDS011;50772;51.482;-0.580;2023-09-08T11:27:49;3.93;;;2.40;;
64426;SDS011;50772;51.482;-0.580;2023-09-08T11:30:15;5.53;;;2.57;;
64426;SDS011;50772;51.482;-0.580;2023-09-08T11:32:40;2.50;;;2.30;;
64426;SDS011;50772;51.482;-0.580;2023-09-08T11:35:06;3.23;;;2.80;;
64426;SDS011;50772;51.482;-0.580;2023-09-08T11:37:34;2.72;;;2.60;;
64426;SDS011;50772;51.482;-0.580;2023-09-08T11:39:59;2.80;;;2.70;;
64426;SDS011;50772;51.482;-0.580;2023-09-08T11:42:25;2.20;;;2.10;;
64426;SDS011;50772;51.482;-0.580;2023-09-08T11:44:50;2.33;;;2.20;;
64426;SDS011;50772;51.482;-0.580;2023-09-08T11:47:19;2.30;;;2.20;;
64426;SDS011;50772;51.482;-0.580;2023-09-08T11:49:45;2.50;;;2.30;;
64426;SDS011;50772;51.482;-0.580;2023-09-08T11:52:11;6.53;;;2.60;;
64426;SDS011;50772;51.482;-0.580;2023-09-08T11:54:36;2.40;;;2.30;;
64426;SDS011;50772;51.482;-0.580;2023-09-08T11:57:03;3.33;;;2.22;;
64426;SDS011;50772;51.482;-0.580;2023-09-08T11:59:32;2.38;;;2.20;;
64426;SDS011;50772;51.482;-0.580;2023-09-08T12:01:58;2.50;;;2.40;;
64426;SDS011;50772;51.482;-0.580;2023-09-08T12:04:23;4.70;;;2.70;;
64426;SDS011;50772;51.482;-0.580;2023-09-08T12:06:49;3.15;;;3.05;;
64426;SDS011;50772;51.482;-0.580;2023-09-08T12:09:15;2.67;;;2.58;;
64426;SDS011;50772;51.482;-0.580;2023-09-08T12:11:41;2.67;;;2.47;;
64426;SDS011;50772;51.482;-0.580;2023-09-08T12:14:09;2.72;;;2.60;;
64426;SDS011;50772;51.482;-0.580;2023-09-08T12:16:34;3.42;;;2.45;;
64426;SDS011;50772;51.482;-0.580;2023-09-08T12:19:00;4.50;;;2.03;;
64426;SDS011;50772;51.482;-0.580;2023-09-08T12:21:25;2.73;;;2.53;;
64426;SDS011;50772;51.482;-0.580;2023-09-08T12:23:52;2.80;;;2.50;;
64426;SDS011;50772;51.482;-0.580;2023-09-08T12:26:17;2.50;;;2.30;;
64426;SDS011;50772;51.482;-0.580;2023-09-08T12:28:43;2.97;;;2.30;;
64426;SDS011;50772;51.482;-0.580;2023-09-08T12:31:08;3.65;;;2.45;;
64426;SDS011;50772;51.482;-0.580;2023-09-08T12:33:34;2.50;;;2.40;;
64426;SDS011;50772;51.482;-0.580;2023-09-08T12:35:59;8.55;;;2.50;;
64426;SDS011;50772;51.482;-0.580;2023-09-08T12:38:30;2.53;;;2.33;;
64426;SDS011;50772;51.482;-0.580;2023-09-08T12:40:55;2.55;;;2.33;;
64426;SDS011;50772;51.482;-0.580;2023-09-08T12:43:24;5.67;;;2.37;;
64426;SDS011;50772;51.482;-0.580;2023-09-08T12:45:49;2.50;;;2.40;;
64426;SDS011;50772;51.482;-0.580;2023-09-08T12:48:14;2.30;;;2.20;;
64426;SDS011;50772;51.482;-0.580;2023-09-08T12:50:39;3.17;;;2.33;;
64426;SDS011;50772;51.482;-0.580;2023-09-08T12:53:05;2.23;;;2.13;;
64426;SDS011;50772;51.482;-0.580;2023-09-08T12:55:30;2.37;;;2.27;;
64426;SDS011;50772;51.482;-0.580;2023-09-08T12:57:55;2.40;;;2.20;;
64426;SDS011;50772;51.482;-0.580;2023-09-08T13:00:21;2.30;;;2.20;;
64426;SDS011;50772;51.482;-0.580;2023-09-08T13:02:48;2.40;;;2.30;;
64426;SDS011;50772;51.482;-0.580;2023-09-08T13:05:13;2.57;;;2.47;;
64426;SDS011;50772;51.482;-0.580;2023-09-08T13:07:38;2.23;;;2.10;;
64426;SDS011;50772;51.482;-0.580;2023-09-08T13:10:03;2.50;;;2.30;;
64426;SDS011;50772;51.482;-0.580;2023-09-08T13:12:29;2.53;;;2.33;;
64426;SDS011;50772;51.482;-0.580;2023-09-08T13:14:56;2.20;;;2.10;;
64426;SDS011;50772;51.482;-0.580;2023-09-08T13:17:24;4.20;;;2.70;;
64426;SDS011;50772;51.482;-0.580;2023-09-08T13:19:49;2.77;;;2.50;;
64426;SDS011;50772;51.482;-0.580;2023-09-08T13:22:17;2.33;;;2.22;;
64426;SDS011;50772;51.482;-0.580;2023-09-08T13:24:43;2.40;;;2.30;;
64426;SDS011;50772;51.482;-0.580;2023-09-08T13:27:09;2.22;;;2.13;;
64426;SDS011;50772;51.482;-0.580;2023-09-08T13:29:34;5.70;;;2.40;;
64426;SDS011;50772;51.482;-0.580;2023-09-08T13:32:03;2.40;;;2.30;;
64426;SDS011;50772;51.482;-0.580;2023-09-08T13:34:29;3.33;;;2.50;;
64426;SDS011;50772;51.482;-0.580;2023-09-08T13:36:54;2.30;;;2.20;;
64426;SDS011;50772;51.482;-0.580;2023-09-08T13:39:22;2.50;;;2.40;;
64426;SDS011;50772;51.482;-0.580;2023-09-08T13:41:48;2.13;;;2.03;;
64426;SDS011;50772;51.482;-0.580;2023-09-08T13:44:14;2.53;;;2.42;;
64426;SDS011;50772;51.482;-0.580;2023-09-08T13:46:40;2.60;;;2.40;;
64426;SDS011;50772;51.482;-0.580;2023-09-08T13:49:05;4.90;;;2.50;;
64426;SDS011;50772;51.482;-0.580;2023-09-08T13:51:30;2.80;;;2.60;;
64426;SDS011;50772;51.482;-0.580;2023-09-08T13:53:56;2.25;;;2.15;;
64426;SDS011;50772;51.482;-0.580;2023-09-08T13:56:21;8.73;;;2.40;;
64426;SDS011;50772;51.482;-0.580;2023-09-08T13:58:46;3.43;;;2.43;;
64426;SDS011;50772;51.482;-0.580;2023-09-08T14:01:12;2.33;;;2.20;;
64426;SDS011;50772;51.482;-0.580;2023-09-08T14:03:37;2.30;;;2.20;;
64426;SDS011;50772;51.482;-0.580;2023-09-08T14:06:02;3.60;;;2.40;;
64426;SDS011;50772;51.482;-0.580;2023-09-08T14:08:27;2.35;;;2.20;;
64426;SDS011;50772;51.482;-0.580;2023-09-08T14:10:55;2.50;;;2.40;;
64426;SDS011;50772;51.482;-0.580;2023-09-08T14:13:23;6.72;;;2.70;;
64426;SDS011;50772;51.482;-0.580;2023-09-08T14:15:48;3.50;;;2.67;;
64426;SDS011;50772;51.482;-0.580;2023-09-08T14:18:13;2.70;;;2.50;;
64426;SDS011;50772;51.482;-0.580;2023-09-08T14:20:40;2.67;;;2.45;;
64426;SDS011;50772;51.482;-0.580;2023-09-08T14:23:05;2.60;;;2.50;;
64426;SDS011;50772;51.482;-0.580;2023-09-08T14:25:32;5.00;;;2.80;;
64426;SDS011;50772;51.482;-0.580;2023-09-08T14:27:57;3.13;;;2.93;;
64426;SDS011;50772;51.482;-0.580;2023-09-08T14:30:23;2.77;;;2.67;;
64426;SDS011;50772;51.482;-0.580;2023-09-08T14:32:48;3.00;;;2.80;;
64426;SDS011;50772;51.482;-0.580;2023-09-08T14:35:13;2.60;;;2.50;;
64426;SDS011;50772;51.482;-0.580;2023-09-08T14:37:38;2.70;;;2.60;;
64426;SDS011;50772;51.482;-0.580;2023-09-08T14:40:04;2.43;;;2.33;;
64426;SDS011;50772;51.482;-0.580;2023-09-08T14:42:31;2.45;;;2.35;;